sensor_id;sensor_type;location;lat;lon;timestamp;P1;durP1;ratioP1;P2;durP2;ratioP2
12296;SDS011;6211;49.124;9.152;2023-08-31T00:02:11;3.97;;;3.03;;
12296;SDS011;6211;49.124;9.152;2023-08-31T00:04:38;2.85;;;2.15;;
12296;SDS011;6211;49.124;9.152;2023-08-31T00:07:05;3.00;;;2.63;;
12296;SDS011;6211;49.124;9.152;2023-08-31T00:09:32;3.63;;;2.60;;
12296;SDS011;6211;49.124;9.152;2023-08-31T00:12:00;3.45;;;2.35;;
12296;SDS011;6211;49.124;9.152;2023-08-31T00:14:29;2.67;;;2.47;;
12296;SDS011;6211;49.124;9.152;2023-08-31T00:16:57;2.67;;;2.20;;
12296;SDS011;6211;49.124;9.152;2023-08-31T00:19:24;3.10;;;2.40;;
12296;SDS011;6211;49.124;9.152;2023-08-31T00:21:51;4.72;;;2.80;;
12296;SDS011;6211;49.124;9.152;2023-08-31T00:24:19;2.95;;;1.95;;
12296;SDS011;6211;49.124;9.152;2023-08-31T00:26:47;4.13;;;2.25;;
12296;SDS011;6211;49.124;9.152;2023-08-31T00:29:16;2.72;;;2.15;;
12296;SDS011;6211;49.124;9.152;2023-08-31T00:31:44;3.08;;;2.35;;
12296;SDS011;6211;49.124;9.152;2023-08-31T00:34:13;2.88;;;2.40;;
12296;SDS011;6211;49.124;9.152;2023-08-31T00:36:42;2.25;;;1.88;;
12296;SDS011;6211;49.124;9.152;2023-08-31T00:39:09;2.35;;;2.10;;
12296;SDS011;6211;49.124;9.152;2023-08-31T00:41:36;2.80;;;2.03;;
12296;SDS011;6211;49.124;9.152;2023-08-31T00:44:04;2.40;;;2.10;;
12296;SDS011;6211;49.124;9.152;2023-08-31T00:46:32;2.47;;;2.10;;
12296;SDS011;6211;49.124;9.152;2023-08-31T00:49:00;4.28;;;2.35;;
12296;SDS011;6211;49.124;9.152;2023-08-31T00:51:29;2.60;;;2.03;;
12296;SDS011;6211;49.124;9.152;2023-08-31T00:53:56;2.97;;;2.08;;
12296;SDS011;6211;49.124;9.152;2023-08-31T00:56:24;2.35;;;2.10;;
12296;SDS011;6211;49.124;9.152;2023-08-31T00:58:51;2.67;;;2.33;;
12296;SDS011;6211;49.124;9.152;2023-08-31T01:01:21;2.83;;;2.40;;
12296;SDS011;6211;49.124;9.152;2023-08-31T01:03:52;2.47;;;2.28;;
12296;SDS011;6211;49.124;9.152;2023-08-31T01:06:24;2.90;;;2.30;;
12296;SDS011;6211;49.124;9.152;2023-08-31T01:08:56;3.45;;;1.95;;
12296;SDS011;6211;49.124;9.152;2023-08-31T01:11:26;3.13;;;2.70;;
12296;SDS011;6211;49.124;9.152;2023-08-31T01:14:00;2.92;;;2.30;;
12296;SDS011;6211;49.124;9.152;2023-08-31T01:16:29;2.50;;;2.30;;
12296;SDS011;6211;49.124;9.152;2023-08-31T01:18:56;2.70;;;2.50;;
12296;SDS011;6211;49.124;9.152;2023-08-31T01:21:27;2.85;;;2.45;;
12296;SDS011;6211;49.124;9.152;2023-08-31T01:23:58;2.75;;;2.50;;
12296;SDS011;6211;49.124;9.152;2023-08-31T01:26:25;4.10;;;2.55;;
12296;SDS011;6211;49.124;9.152;2023-08-31T01:28:53;2.92;;;2.60;;
12296;SDS011;6211;49.124;9.152;2023-08-31T01:31:21;3.40;;;2.80;;
12296;SDS011;6211;49.124;9.152;2023-08-31T01:33:48;6.53;;;2.65;;
12296;SDS011;6211;49.124;9.152;2023-08-31T01:36:17;3.47;;;2.83;;
12296;SDS011;6211;49.124;9.152;2023-08-31T01:38:45;4.63;;;2.97;;
12296;SDS011;6211;49.124;9.152;2023-08-31T01:41:17;3.95;;;2.88;;
12296;SDS011;6211;49.124;9.152;2023-08-31T01:43:46;3.42;;;2.78;;
12296;SDS011;6211;49.124;9.152;2023-08-31T01:46:15;3.15;;;2.78;;
12296;SDS011;6211;49.124;9.152;2023-08-31T01:48:42;6.18;;;3.22;;
12296;SDS011;6211;49.124;9.152;2023-08-31T01:51:10;4.53;;;3.25;;
12296;SDS011;6211;49.124;9.152;2023-08-31T01:53:37;4.68;;;3.03;;
12296;SDS011;6211;49.124;9.152;2023-08-31T01:56:05;3.70;;;2.97;;
12296;SDS011;6211;49.124;9.152;2023-08-31T01:58:33;3.30;;;2.78;;
12296;SDS011;6211;49.124;9.152;2023-08-31T02:01:00;2.60;;;2.38;;
12296;SDS011;6211;49.124;9.152;2023-08-31T02:03:27;5.93;;;2.70;;
12296;SDS011;6211;49.124;9.152;2023-08-31T02:05:54;6.30;;;3.50;;
12296;SDS011;6211;49.124;9.152;2023-08-31T02:08:22;4.05;;;2.70;;
12296;SDS011;6211;49.124;9.152;2023-08-31T02:10:49;3.38;;;3.03;;
12296;SDS011;6211;49.124;9.152;2023-08-31T02:13:16;5.20;;;3.03;;
12296;SDS011;6211;49.124;9.152;2023-08-31T02:15:45;4.28;;;3.00;;
12296;SDS011;6211;49.124;9.152;2023-08-31T02:18:12;5.60;;;3.08;;
12296;SDS011;6211;49.124;9.152;2023-08-31T02:20:39;4.95;;;3.28;;
12296;SDS011;6211;49.124;9.152;2023-08-31T02:23:06;4.43;;;3.33;;
12296;SDS011;6211;49.124;9.152;2023-08-31T02:25:34;4.05;;;3.30;;
12296;SDS011;6211;49.124;9.152;2023-08-31T02:28:01;9.13;;;3.60;;
12296;SDS011;6211;49.124;9.152;2023-08-31T02:30:28;5.05;;;3.10;;
12296;SDS011;6211;49.124;9.152;2023-08-31T02:32:57;4.05;;;3.38;;
12296;SDS011;6211;49.124;9.152;2023-08-31T02:35:24;11.35;;;3.45;;
12296;SDS011;6211;49.124;9.152;2023-08-31T02:37:51;4.55;;;3.50;;
12296;SDS011;6211;49.124;9.152;2023-08-31T02:40:18;5.75;;;3.30;;
12296;SDS011;6211;49.124;9.152;2023-08-31T02:42:46;3.83;;;3.05;;
12296;SDS011;6211;49.124;9.152;2023-08-31T02:45:13;5.68;;;3.78;;
12296;SDS011;6211;49.124;9.152;2023-08-31T02:47:41;4.10;;;3.58;;
12296;SDS011;6211;49.124;9.152;2023-08-31T02:50:09;5.25;;;3.15;;
12296;SDS011;6211;49.124;9.152;2023-08-31T02:52:36;5.10;;;3.85;;
12296;SDS011;6211;49.124;9.152;2023-08-31T02:55:04;4.45;;;3.17;;
12296;SDS011;6211;49.124;9.152;2023-08-31T02:57:31;4.95;;;3.75;;
12296;SDS011;6211;49.124;9.152;2023-08-31T02:59:58;5.95;;;3.85;;
12296;SDS011;6211;49.124;9.152;2023-08-31T03:02:25;7.38;;;3.95;;
12296;SDS011;6211;49.124;9.152;2023-08-31T03:04:53;6.10;;;4.00;;
12296;SDS011;6211;49.124;9.152;2023-08-31T03:07:21;6.38;;;3.47;;
12296;SDS011;6211;49.124;9.152;2023-08-31T03:09:48;5.45;;;3.97;;
12296;SDS011;6211;49.124;9.152;2023-08-31T03:12:16;5.60;;;3.80;;
12296;SDS011;6211;49.124;9.152;2023-08-31T03:14:43;6.22;;;3.53;;
12296;SDS011;6211;49.124;9.152;2023-08-31T03:17:10;4.63;;;3.10;;
12296;SDS011;6211;49.124;9.152;2023-08-31T03:19:37;6.38;;;3.22;;
12296;SDS011;6211;49.124;9.152;2023-08-31T03:22:04;5.15;;;3.17;;
12296;SDS011;6211;49.124;9.152;2023-08-31T03:24:33;6.68;;;3.65;;
12296;SDS011;6211;49.124;9.152;2023-08-31T03:27:00;3.47;;;2.95;;
12296;SDS011;6211;49.124;9.152;2023-08-31T03:29:28;5.55;;;3.05;;
12296;SDS011;6211;49.124;9.152;2023-08-31T03:31:57;8.13;;;4.05;;
12296;SDS011;6211;49.124;9.152;2023-08-31T03:34:24;6.25;;;3.72;;
12296;SDS011;6211;49.124;9.152;2023-08-31T03:36:55;4.70;;;2.80;;
12296;SDS011;6211;49.124;9.152;2023-08-31T03:39:22;3.63;;;2.72;;
12296;SDS011;6211;49.124;9.152;2023-08-31T03:41:51;3.38;;;3.08;;
12296;SDS011;6211;49.124;9.152;2023-08-31T03:44:19;4.28;;;3.10;;
12296;SDS011;6211;49.124;9.152;2023-08-31T03:46:47;5.13;;;2.70;;
12296;SDS011;6211;49.124;9.152;2023-08-31T03:49:14;3.50;;;2.80;;
12296;SDS011;6211;49.124;9.152;2023-08-31T03:51:41;4.10;;;2.50;;
12296;SDS011;6211;49.124;9.152;2023-08-31T03:54:08;4.95;;;2.42;;
12296;SDS011;6211;49.124;9.152;2023-08-31T03:56:37;4.93;;;2.90;;
12296;SDS011;6211;49.124;9.152;2023-08-31T03:59:06;2.83;;;2.53;;
12296;SDS011;6211;49.124;9.152;2023-08-31T04:01:33;3.08;;;2.70;;
12296;SDS011;6211;49.124;9.152;2023-08-31T04:04:00;3.53;;;2.35;;
12296;SDS011;6211;49.124;9.152;2023-08-31T04:06:29;5.35;;;2.88;;
12296;SDS011;6211;49.124;9.152;2023-08-31T04:08:56;2.50;;;2.22;;
12296;SDS011;6211;49.124;9.152;2023-08-31T04:11:24;4.95;;;2.63;;
12296;SDS011;6211;49.124;9.152;2023-08-31T04:13:51;7.63;;;2.60;;
12296;SDS011;6211;49.124;9.152;2023-08-31T04:16:20;2.15;;;1.95;;
12296;SDS011;6211;49.124;9.152;2023-08-31T04:18:47;3.63;;;2.25;;
12296;SDS011;6211;49.124;9.152;2023-08-31T04:21:16;3.17;;;2.20;;
12296;SDS011;6211;49.124;9.152;2023-08-31T04:23:43;3.65;;;2.25;;
12296;SDS011;6211;49.124;9.152;2023-08-31T04:26:10;6.82;;;2.40;;
12296;SDS011;6211;49.124;9.152;2023-08-31T04:28:38;5.88;;;2.70;;
12296;SDS011;6211;49.124;9.152;2023-08-31T04:31:06;2.67;;;2.03;;
12296;SDS011;6211;49.124;9.152;2023-08-31T04:33:35;2.20;;;1.90;;
12296;SDS011;6211;49.124;9.152;2023-08-31T04:36:02;4.32;;;2.35;;
12296;SDS011;6211;49.124;9.152;2023-08-31T04:38:29;3.20;;;2.20;;
12296;SDS011;6211;49.124;9.152;2023-08-31T04:40:57;5.40;;;2.30;;
12296;SDS011;6211;49.124;9.152;2023-08-31T04:43:25;3.22;;;1.95;;
12296;SDS011;6211;49.124;9.152;2023-08-31T04:45:52;5.07;;;2.20;;
12296;SDS011;6211;49.124;9.152;2023-08-31T04:48:20;2.67;;;2.08;;
12296;SDS011;6211;49.124;9.152;2023-08-31T04:50:48;3.70;;;2.35;;
12296;SDS011;6211;49.124;9.152;2023-08-31T04:53:15;16.90;;;7.28;;
12296;SDS011;6211;49.124;9.152;2023-08-31T04:55:42;5.00;;;2.10;;
12296;SDS011;6211;49.124;9.152;2023-08-31T04:58:10;2.58;;;1.92;;
12296;SDS011;6211;49.124;9.152;2023-08-31T05:00:37;4.15;;;2.05;;
12296;SDS011;6211;49.124;9.152;2023-08-31T05:03:05;3.38;;;1.73;;
12296;SDS011;6211;49.124;9.152;2023-08-31T05:05:32;2.00;;;1.80;;
12296;SDS011;6211;49.124;9.152;2023-08-31T05:08:00;1.83;;;1.73;;
12296;SDS011;6211;49.124;9.152;2023-08-31T05:10:28;1.73;;;1.58;;
12296;SDS011;6211;49.124;9.152;2023-08-31T05:12:55;2.35;;;1.67;;
12296;SDS011;6211;49.124;9.152;2023-08-31T05:15:22;2.00;;;1.70;;
12296;SDS011;6211;49.124;9.152;2023-08-31T05:17:52;2.67;;;2.03;;
12296;SDS011;6211;49.124;9.152;2023-08-31T05:20:19;3.88;;;1.60;;
12296;SDS011;6211;49.124;9.152;2023-08-31T05:22:48;4.88;;;1.98;;
12296;SDS011;6211;49.124;9.152;2023-08-31T05:25:17;3.38;;;1.88;;
12296;SDS011;6211;49.124;9.152;2023-08-31T05:27:44;1.77;;;1.65;;
12296;SDS011;6211;49.124;9.152;2023-08-31T05:30:11;1.92;;;1.50;;
12296;SDS011;6211;49.124;9.152;2023-08-31T05:32:38;3.78;;;1.77;;
12296;SDS011;6211;49.124;9.152;2023-08-31T05:35:06;2.33;;;1.88;;
12296;SDS011;6211;49.124;9.152;2023-08-31T05:37:33;2.58;;;1.85;;
12296;SDS011;6211;49.124;9.152;2023-08-31T05:40:01;2.88;;;1.70;;
12296;SDS011;6211;49.124;9.152;2023-08-31T05:42:33;1.70;;;1.60;;
12296;SDS011;6211;49.124;9.152;2023-08-31T05:45:00;3.08;;;1.65;;
12296;SDS011;6211;49.124;9.152;2023-08-31T05:47:27;2.50;;;1.75;;
12296;SDS011;6211;49.124;9.152;2023-08-31T05:49:55;3.42;;;1.48;;
12296;SDS011;6211;49.124;9.152;2023-08-31T05:52:22;3.25;;;1.77;;
12296;SDS011;6211;49.124;9.152;2023-08-31T05:54:49;3.00;;;1.23;;
12296;SDS011;6211;49.124;9.152;2023-08-31T05:57:18;3.33;;;1.67;;
12296;SDS011;6211;49.124;9.152;2023-08-31T05:59:47;1.95;;;1.42;;
12296;SDS011;6211;49.124;9.152;2023-08-31T06:02:14;4.13;;;1.20;;
12296;SDS011;6211;49.124;9.152;2023-08-31T06:04:41;2.85;;;1.73;;
12296;SDS011;6211;49.124;9.152;2023-08-31T06:07:09;1.50;;;1.40;;
12296;SDS011;6211;49.124;9.152;2023-08-31T06:09:36;2.35;;;1.70;;
12296;SDS011;6211;49.124;9.152;2023-08-31T06:12:03;3.65;;;1.42;;
12296;SDS011;6211;49.124;9.152;2023-08-31T06:14:31;2.60;;;1.20;;
12296;SDS011;6211;49.124;9.152;2023-08-31T06:17:00;5.25;;;1.38;;
12296;SDS011;6211;49.124;9.152;2023-08-31T06:19:27;1.92;;;1.27;;
12296;SDS011;6211;49.124;9.152;2023-08-31T06:21:54;4.90;;;1.33;;
12296;SDS011;6211;49.124;9.152;2023-08-31T06:24:22;1.20;;;1.02;;
12296;SDS011;6211;49.124;9.152;2023-08-31T06:26:49;2.00;;;1.35;;
12296;SDS011;6211;49.124;9.152;2023-08-31T06:29:17;2.75;;;1.50;;
12296;SDS011;6211;49.124;9.152;2023-08-31T06:31:44;2.60;;;1.30;;
12296;SDS011;6211;49.124;9.152;2023-08-31T06:34:12;2.50;;;1.25;;
12296;SDS011;6211;49.124;9.152;2023-08-31T06:36:39;2.13;;;1.83;;
12296;SDS011;6211;49.124;9.152;2023-08-31T06:39:07;1.80;;;1.48;;
12296;SDS011;6211;49.124;9.152;2023-08-31T06:41:34;1.63;;;1.40;;
12296;SDS011;6211;49.124;9.152;2023-08-31T06:44:01;2.80;;;1.23;;
12296;SDS011;6211;49.124;9.152;2023-08-31T06:46:29;1.42;;;1.33;;
12296;SDS011;6211;49.124;9.152;2023-08-31T06:48:59;1.58;;;1.05;;
12296;SDS011;6211;49.124;9.152;2023-08-31T06:51:27;1.70;;;1.60;;
12296;SDS011;6211;49.124;9.152;2023-08-31T06:53:54;2.08;;;1.45;;
12296;SDS011;6211;49.124;9.152;2023-08-31T06:56:26;3.83;;;1.40;;
12296;SDS011;6211;49.124;9.152;2023-08-31T06:58:53;1.42;;;1.10;;
12296;SDS011;6211;49.124;9.152;2023-08-31T07:01:20;2.13;;;1.08;;
12296;SDS011;6211;49.124;9.152;2023-08-31T07:03:48;1.70;;;1.35;;
12296;SDS011;6211;49.124;9.152;2023-08-31T07:06:15;1.83;;;1.30;;
12296;SDS011;6211;49.124;9.152;2023-08-31T07:08:43;2.47;;;1.13;;
12296;SDS011;6211;49.124;9.152;2023-08-31T07:11:12;2.08;;;1.20;;
12296;SDS011;6211;49.124;9.152;2023-08-31T07:13:39;2.80;;;1.25;;
12296;SDS011;6211;49.124;9.152;2023-08-31T07:16:06;2.25;;;1.30;;
12296;SDS011;6211;49.124;9.152;2023-08-31T07:18:34;1.70;;;1.17;;
12296;SDS011;6211;49.124;9.152;2023-08-31T07:21:02;1.70;;;1.40;;
12296;SDS011;6211;49.124;9.152;2023-08-31T07:23:29;1.23;;;1.10;;
12296;SDS011;6211;49.124;9.152;2023-08-31T07:25:58;1.30;;;1.20;;
12296;SDS011;6211;49.124;9.152;2023-08-31T07:28:26;2.08;;;1.25;;
12296;SDS011;6211;49.124;9.152;2023-08-31T07:31:00;1.23;;;1.05;;
12296;SDS011;6211;49.124;9.152;2023-08-31T07:33:28;1.23;;;1.13;;
12296;SDS011;6211;49.124;9.152;2023-08-31T07:35:56;0.95;;;0.95;;
12296;SDS011;6211;49.124;9.152;2023-08-31T07:38:23;1.80;;;1.25;;
12296;SDS011;6211;49.124;9.152;2023-08-31T07:40:50;1.73;;;1.15;;
12296;SDS011;6211;49.124;9.152;2023-08-31T07:43:19;3.05;;;1.10;;
12296;SDS011;6211;49.124;9.152;2023-08-31T07:45:46;1.50;;;1.13;;
12296;SDS011;6211;49.124;9.152;2023-08-31T07:48:13;3.22;;;1.50;;
12296;SDS011;6211;49.124;9.152;2023-08-31T07:50:40;2.33;;;1.30;;
12296;SDS011;6211;49.124;9.152;2023-08-31T07:53:08;1.63;;;1.20;;
12296;SDS011;6211;49.124;9.152;2023-08-31T07:55:35;1.85;;;1.00;;
12296;SDS011;6211;49.124;9.152;2023-08-31T07:58:02;2.90;;;1.20;;
12296;SDS011;6211;49.124;9.152;2023-08-31T08:00:30;0.80;;;0.80;;
12296;SDS011;6211;49.124;9.152;2023-08-31T08:02:58;3.22;;;1.40;;
12296;SDS011;6211;49.124;9.152;2023-08-31T08:05:25;2.78;;;1.27;;
12296;SDS011;6211;49.124;9.152;2023-08-31T08:07:52;2.33;;;1.08;;
12296;SDS011;6211;49.124;9.152;2023-08-31T08:10:19;1.75;;;1.10;;
12296;SDS011;6211;49.124;9.152;2023-08-31T08:12:46;1.20;;;1.10;;
12296;SDS011;6211;49.124;9.152;2023-08-31T08:15:13;1.02;;;0.90;;
12296;SDS011;6211;49.124;9.152;2023-08-31T08:17:42;3.30;;;1.20;;
12296;SDS011;6211;49.124;9.152;2023-08-31T08:20:10;4.25;;;1.20;;
12296;SDS011;6211;49.124;9.152;2023-08-31T08:22:37;2.78;;;1.25;;
12296;SDS011;6211;49.124;9.152;2023-08-31T08:25:04;4.35;;;1.50;;
12296;SDS011;6211;49.124;9.152;2023-08-31T08:27:32;1.85;;;1.05;;
12296;SDS011;6211;49.124;9.152;2023-08-31T08:29:59;3.90;;;1.23;;
12296;SDS011;6211;49.124;9.152;2023-08-31T08:32:27;2.72;;;1.30;;
12296;SDS011;6211;49.124;9.152;2023-08-31T08:34:55;2.10;;;1.45;;
12296;SDS011;6211;49.124;9.152;2023-08-31T08:37:22;1.73;;;1.33;;
12296;SDS011;6211;49.124;9.152;2023-08-31T08:39:50;1.48;;;1.00;;
12296;SDS011;6211;49.124;9.152;2023-08-31T08:42:17;1.25;;;1.15;;
12296;SDS011;6211;49.124;9.152;2023-08-31T08:44:45;3.50;;;1.17;;
12296;SDS011;6211;49.124;9.152;2023-08-31T08:47:13;2.10;;;1.40;;
12296;SDS011;6211;49.124;9.152;2023-08-31T08:49:41;3.28;;;1.25;;
12296;SDS011;6211;49.124;9.152;2023-08-31T08:52:09;3.67;;;1.33;;
12296;SDS011;6211;49.124;9.152;2023-08-31T08:54:38;1.80;;;1.00;;
12296;SDS011;6211;49.124;9.152;2023-08-31T08:57:05;2.25;;;1.30;;
12296;SDS011;6211;49.124;9.152;2023-08-31T08:59:32;4.43;;;1.42;;
12296;SDS011;6211;49.124;9.152;2023-08-31T09:01:59;1.90;;;1.00;;
12296;SDS011;6211;49.124;9.152;2023-08-31T09:04:28;2.38;;;1.25;;
12296;SDS011;6211;49.124;9.152;2023-08-31T09:06:56;1.00;;;1.00;;
12296;SDS011;6211;49.124;9.152;2023-08-31T09:09:24;1.92;;;1.23;;
12296;SDS011;6211;49.124;9.152;2023-08-31T09:11:51;3.15;;;1.30;;
12296;SDS011;6211;49.124;9.152;2023-08-31T09:14:20;2.00;;;1.40;;
12296;SDS011;6211;49.124;9.152;2023-08-31T09:16:48;1.70;;;1.00;;
12296;SDS011;6211;49.124;9.152;2023-08-31T09:19:19;1.65;;;1.30;;
12296;SDS011;6211;49.124;9.152;2023-08-31T09:21:46;2.92;;;1.20;;
12296;SDS011;6211;49.124;9.152;2023-08-31T09:24:14;4.35;;;1.63;;
12296;SDS011;6211;49.124;9.152;2023-08-31T09:26:44;2.03;;;1.42;;
12296;SDS011;6211;49.124;9.152;2023-08-31T09:29:12;1.00;;;0.90;;
12296;SDS011;6211;49.124;9.152;2023-08-31T09:31:41;1.58;;;1.10;;
12296;SDS011;6211;49.124;9.152;2023-08-31T09:34:09;1.33;;;1.23;;
12296;SDS011;6211;49.124;9.152;2023-08-31T09:36:36;2.25;;;1.00;;
12296;SDS011;6211;49.124;9.152;2023-08-31T09:39:04;2.55;;;1.23;;
12296;SDS011;6211;49.124;9.152;2023-08-31T09:41:32;7.18;;;1.25;;
12296;SDS011;6211;49.124;9.152;2023-08-31T09:44:06;1.60;;;0.93;;
12296;SDS011;6211;49.124;9.152;2023-08-31T09:46:42;2.20;;;1.10;;
12296;SDS011;6211;49.124;9.152;2023-08-31T09:49:10;2.75;;;1.38;;
12296;SDS011;6211;49.124;9.152;2023-08-31T09:51:37;2.70;;;1.10;;
12296;SDS011;6211;49.124;9.152;2023-08-31T09:54:06;2.97;;;1.20;;
12296;SDS011;6211;49.124;9.152;2023-08-31T09:56:34;0.88;;;0.85;;
12296;SDS011;6211;49.124;9.152;2023-08-31T09:59:02;3.33;;;0.95;;
12296;SDS011;6211;49.124;9.152;2023-08-31T10:01:31;1.30;;;1.00;;
12296;SDS011;6211;49.124;9.152;2023-08-31T10:03:58;1.85;;;1.20;;
12296;SDS011;6211;49.124;9.152;2023-08-31T10:06:26;4.15;;;1.10;;
12296;SDS011;6211;49.124;9.152;2023-08-31T10:08:54;2.45;;;1.20;;
12296;SDS011;6211;49.124;9.152;2023-08-31T10:11:21;2.15;;;1.42;;
12296;SDS011;6211;49.124;9.152;2023-08-31T10:13:51;1.88;;;1.30;;
12296;SDS011;6211;49.124;9.152;2023-08-31T10:16:18;1.77;;;1.13;;
12296;SDS011;6211;49.124;9.152;2023-08-31T10:18:47;2.47;;;1.00;;
12296;SDS011;6211;49.124;9.152;2023-08-31T10:21:16;2.25;;;1.30;;
12296;SDS011;6211;49.124;9.152;2023-08-31T10:23:46;2.08;;;1.23;;
12296;SDS011;6211;49.124;9.152;2023-08-31T10:26:22;1.40;;;1.00;;
12296;SDS011;6211;49.124;9.152;2023-08-31T10:28:51;0.80;;;0.80;;
12296;SDS011;6211;49.124;9.152;2023-08-31T10:31:18;3.60;;;1.58;;
12296;SDS011;6211;49.124;9.152;2023-08-31T10:33:54;3.13;;;0.80;;
12296;SDS011;6211;49.124;9.152;2023-08-31T10:36:22;2.00;;;0.95;;
12296;SDS011;6211;49.124;9.152;2023-08-31T10:39:01;1.15;;;1.00;;
12296;SDS011;6211;49.124;9.152;2023-08-31T10:41:32;1.67;;;1.30;;
12296;SDS011;6211;49.124;9.152;2023-08-31T10:44:00;1.23;;;1.00;;
12296;SDS011;6211;49.124;9.152;2023-08-31T10:46:28;1.30;;;1.10;;
12296;SDS011;6211;49.124;9.152;2023-08-31T10:48:57;1.77;;;1.10;;
12296;SDS011;6211;49.124;9.152;2023-08-31T10:51:24;1.75;;;1.27;;
12296;SDS011;6211;49.124;9.152;2023-08-31T10:53:52;2.63;;;1.10;;
12296;SDS011;6211;49.124;9.152;2023-08-31T10:56:19;2.25;;;1.00;;
12296;SDS011;6211;49.124;9.152;2023-08-31T10:58:58;2.35;;;1.20;;
12296;SDS011;6211;49.124;9.152;2023-08-31T11:04:15;2.60;;;1.02;;
12296;SDS011;6211;49.124;9.152;2023-08-31T11:06:42;1.60;;;1.02;;
12296;SDS011;6211;49.124;9.152;2023-08-31T11:09:17;2.35;;;0.98;;
12296;SDS011;6211;49.124;9.152;2023-08-31T11:11:45;3.75;;;1.20;;
12296;SDS011;6211;49.124;9.152;2023-08-31T11:14:12;2.78;;;1.00;;
12296;SDS011;6211;49.124;9.152;2023-08-31T11:16:40;1.92;;;0.93;;
12296;SDS011;6211;49.124;9.152;2023-08-31T11:19:08;2.20;;;1.05;;
12296;SDS011;6211;49.124;9.152;2023-08-31T11:21:37;1.20;;;1.10;;
12296;SDS011;6211;49.124;9.152;2023-08-31T11:24:04;2.50;;;1.33;;
12296;SDS011;6211;49.124;9.152;2023-08-31T11:26:31;2.55;;;1.02;;
12296;SDS011;6211;49.124;9.152;2023-08-31T11:28:59;5.40;;;1.67;;
12296;SDS011;6211;49.124;9.152;2023-08-31T11:31:26;1.33;;;1.23;;
12296;SDS011;6211;49.124;9.152;2023-08-31T11:33:54;4.43;;;1.50;;
12296;SDS011;6211;49.124;9.152;2023-08-31T11:36:22;2.80;;;1.20;;
12296;SDS011;6211;49.124;9.152;2023-08-31T11:38:50;1.63;;;1.20;;
12296;SDS011;6211;49.124;9.152;2023-08-31T11:41:17;2.03;;;0.90;;
12296;SDS011;6211;49.124;9.152;2023-08-31T11:43:44;3.55;;;1.20;;
12296;SDS011;6211;49.124;9.152;2023-08-31T11:46:12;3.75;;;1.50;;
12296;SDS011;6211;49.124;9.152;2023-08-31T11:48:39;3.58;;;1.10;;
12296;SDS011;6211;49.124;9.152;2023-08-31T11:51:06;2.30;;;1.20;;
12296;SDS011;6211;49.124;9.152;2023-08-31T11:53:33;1.98;;;1.38;;
12296;SDS011;6211;49.124;9.152;2023-08-31T11:56:02;3.33;;;1.45;;
12296;SDS011;6211;49.124;9.152;2023-08-31T11:58:30;2.17;;;1.50;;
12296;SDS011;6211;49.124;9.152;2023-08-31T12:00:57;2.15;;;1.15;;
12296;SDS011;6211;49.124;9.152;2023-08-31T12:03:24;1.20;;;1.10;;
12296;SDS011;6211;49.124;9.152;2023-08-31T12:05:52;2.47;;;1.02;;
12296;SDS011;6211;49.124;9.152;2023-08-31T12:08:25;4.30;;;1.30;;
12296;SDS011;6211;49.124;9.152;2023-08-31T12:10:52;1.25;;;1.00;;
12296;SDS011;6211;49.124;9.152;2023-08-31T12:13:21;3.45;;;1.38;;
12296;SDS011;6211;49.124;9.152;2023-08-31T12:15:53;3.55;;;1.33;;
12296;SDS011;6211;49.124;9.152;2023-08-31T12:18:21;2.38;;;1.10;;
12296;SDS011;6211;49.124;9.152;2023-08-31T12:20:49;1.85;;;1.15;;
12296;SDS011;6211;49.124;9.152;2023-08-31T12:23:16;5.68;;;1.50;;
12296;SDS011;6211;49.124;9.152;2023-08-31T12:25:47;1.70;;;1.20;;
12296;SDS011;6211;49.124;9.152;2023-08-31T12:28:14;1.60;;;1.20;;
12296;SDS011;6211;49.124;9.152;2023-08-31T12:30:45;2.50;;;1.27;;
12296;SDS011;6211;49.124;9.152;2023-08-31T12:33:12;1.95;;;1.70;;
12296;SDS011;6211;49.124;9.152;2023-08-31T12:35:39;1.77;;;1.10;;
12296;SDS011;6211;49.124;9.152;2023-08-31T12:38:07;3.55;;;1.35;;
12296;SDS011;6211;49.124;9.152;2023-08-31T12:40:34;2.70;;;1.50;;
12296;SDS011;6211;49.124;9.152;2023-08-31T12:43:01;1.70;;;1.25;;
12296;SDS011;6211;49.124;9.152;2023-08-31T12:45:29;1.48;;;1.23;;
12296;SDS011;6211;49.124;9.152;2023-08-31T12:47:58;1.88;;;1.17;;
12296;SDS011;6211;49.124;9.152;2023-08-31T12:50:25;4.47;;;1.20;;
12296;SDS011;6211;49.124;9.152;2023-08-31T12:52:52;3.05;;;1.33;;
12296;SDS011;6211;49.124;9.152;2023-08-31T12:55:19;3.13;;;1.25;;
12296;SDS011;6211;49.124;9.152;2023-08-31T12:57:46;2.00;;;1.20;;
12296;SDS011;6211;49.124;9.152;2023-08-31T13:00:14;3.10;;;1.35;;
12296;SDS011;6211;49.124;9.152;2023-08-31T13:02:42;2.63;;;1.38;;
12296;SDS011;6211;49.124;9.152;2023-08-31T13:05:11;18.95;;;8.35;;
12296;SDS011;6211;49.124;9.152;2023-08-31T13:07:38;4.18;;;1.70;;
12296;SDS011;6211;49.124;9.152;2023-08-31T13:10:06;4.30;;;1.30;;
12296;SDS011;6211;49.124;9.152;2023-08-31T13:12:33;2.97;;;1.10;;
12296;SDS011;6211;49.124;9.152;2023-08-31T13:15:02;1.67;;;1.00;;
12296;SDS011;6211;49.124;9.152;2023-08-31T13:17:29;2.85;;;1.40;;
12296;SDS011;6211;49.124;9.152;2023-08-31T13:19:57;2.22;;;1.30;;
12296;SDS011;6211;49.124;9.152;2023-08-31T13:22:25;3.53;;;1.48;;
12296;SDS011;6211;49.124;9.152;2023-08-31T13:24:52;3.25;;;1.50;;
12296;SDS011;6211;49.124;9.152;2023-08-31T13:27:19;4.38;;;1.30;;
12296;SDS011;6211;49.124;9.152;2023-08-31T13:29:47;3.80;;;1.23;;
12296;SDS011;6211;49.124;9.152;2023-08-31T13:32:14;3.28;;;1.48;;
12296;SDS011;6211;49.124;9.152;2023-08-31T13:34:41;2.88;;;1.30;;
12296;SDS011;6211;49.124;9.152;2023-08-31T13:37:08;1.92;;;1.33;;
12296;SDS011;6211;49.124;9.152;2023-08-31T13:39:36;3.58;;;1.23;;
12296;SDS011;6211;49.124;9.152;2023-08-31T13:42:05;3.85;;;1.42;;
12296;SDS011;6211;49.124;9.152;2023-08-31T13:44:33;1.67;;;1.10;;
12296;SDS011;6211;49.124;9.152;2023-08-31T13:47:01;1.90;;;1.25;;
12296;SDS011;6211;49.124;9.152;2023-08-31T13:49:28;2.55;;;1.25;;
12296;SDS011;6211;49.124;9.152;2023-08-31T13:51:56;1.67;;;1.15;;
12296;SDS011;6211;49.124;9.152;2023-08-31T13:54:23;3.67;;;1.90;;
12296;SDS011;6211;49.124;9.152;2023-08-31T13:56:51;3.10;;;1.50;;
12296;SDS011;6211;49.124;9.152;2023-08-31T13:59:19;2.22;;;1.13;;
12296;SDS011;6211;49.124;9.152;2023-08-31T14:01:46;2.33;;;1.55;;
12296;SDS011;6211;49.124;9.152;2023-08-31T14:04:13;1.80;;;1.17;;
12296;SDS011;6211;49.124;9.152;2023-08-31T14:06:40;1.52;;;1.17;;
12296;SDS011;6211;49.124;9.152;2023-08-31T14:09:07;1.75;;;1.23;;
12296;SDS011;6211;49.124;9.152;2023-08-31T14:11:34;3.20;;;1.40;;
12296;SDS011;6211;49.124;9.152;2023-08-31T14:14:03;1.25;;;1.00;;
12296;SDS011;6211;49.124;9.152;2023-08-31T14:16:34;2.08;;;1.25;;
12296;SDS011;6211;49.124;9.152;2023-08-31T14:19:02;1.90;;;1.20;;
12296;SDS011;6211;49.124;9.152;2023-08-31T14:21:29;2.15;;;1.50;;
12296;SDS011;6211;49.124;9.152;2023-08-31T14:23:56;3.50;;;1.35;;
12296;SDS011;6211;49.124;9.152;2023-08-31T14:26:23;2.13;;;1.45;;
12296;SDS011;6211;49.124;9.152;2023-08-31T14:28:50;3.38;;;1.50;;
12296;SDS011;6211;49.124;9.152;2023-08-31T14:31:19;2.78;;;1.40;;
12296;SDS011;6211;49.124;9.152;2023-08-31T14:33:47;2.15;;;1.40;;
12296;SDS011;6211;49.124;9.152;2023-08-31T14:36:15;1.73;;;1.10;;
12296;SDS011;6211;49.124;9.152;2023-08-31T14:38:42;2.22;;;1.30;;
12296;SDS011;6211;49.124;9.152;2023-08-31T14:41:10;1.73;;;1.10;;
12296;SDS011;6211;49.124;9.152;2023-08-31T14:43:37;2.88;;;1.52;;
12296;SDS011;6211;49.124;9.152;2023-08-31T14:46:05;2.45;;;1.30;;
12296;SDS011;6211;49.124;9.152;2023-08-31T14:48:33;1.52;;;1.40;;
12296;SDS011;6211;49.124;9.152;2023-08-31T14:51:00;3.08;;;1.00;;
12296;SDS011;6211;49.124;9.152;2023-08-31T14:53:28;5.25;;;1.52;;
12296;SDS011;6211;49.124;9.152;2023-08-31T14:55:55;2.30;;;1.45;;
12296;SDS011;6211;49.124;9.152;2023-08-31T14:58:23;1.95;;;1.30;;
12296;SDS011;6211;49.124;9.152;2023-08-31T15:00:50;4.25;;;1.38;;
12296;SDS011;6211;49.124;9.152;2023-08-31T15:03:17;2.88;;;1.25;;
12296;SDS011;6211;49.124;9.152;2023-08-31T15:05:49;2.90;;;1.40;;
12296;SDS011;6211;49.124;9.152;2023-08-31T15:17:11;1.35;;;1.10;;